sensor_id;sensor_type;location;lat;lon;timestamp;P1;durP1;ratioP1;P2;durP2;ratioP2
15944;SDS011;30172;48.832;8.732;2022-08-30T00:02:15;5.32;;;3.70;;
15944;SDS011;30172;48.832;8.732;2022-08-30T00:04:41;5.97;;;4.22;;
15944;SDS011;30172;48.832;8.732;2022-08-30T00:07:06;5.75;;;4.30;;
15944;SDS011;30172;48.832;8.732;2022-08-30T00:09:31;5.90;;;4.22;;
15944;SDS011;30172;48.832;8.732;2022-08-30T00:11:57;5.45;;;3.85;;
15944;SDS011;30172;48.832;8.732;2022-08-30T00:14:22;4.45;;;4.05;;
15944;SDS011;30172;48.832;8.732;2022-08-30T00:16:49;5.53;;;4.10;;
15944;SDS011;30172;48.832;8.732;2022-08-30T00:19:15;5.82;;;4.45;;
15944;SDS011;30172;48.832;8.732;2022-08-30T00:21:40;5.75;;;4.65;;
15944;SDS011;30172;48.832;8.732;2022-08-30T00:24:05;4.70;;;3.97;;
15944;SDS011;30172;48.832;8.732;2022-08-30T00:26:30;5.03;;;3.92;;
15944;SDS011;30172;48.832;8.732;2022-08-30T00:28:56;7.43;;;4.10;;
15944;SDS011;30172;48.832;8.732;2022-08-30T00:31:22;5.60;;;4.38;;
15944;SDS011;30172;48.832;8.732;2022-08-30T00:33:48;6.97;;;4.40;;
15944;SDS011;30172;48.832;8.732;2022-08-30T00:36:13;6.82;;;4.78;;
15944;SDS011;30172;48.832;8.732;2022-08-30T00:38:39;6.60;;;4.68;;
15944;SDS011;30172;48.832;8.732;2022-08-30T00:41:05;8.63;;;4.30;;
15944;SDS011;30172;48.832;8.732;2022-08-30T00:43:31;6.78;;;4.53;;
15944;SDS011;30172;48.832;8.732;2022-08-30T00:45:58;6.35;;;4.93;;
15944;SDS011;30172;48.832;8.732;2022-08-30T00:48:28;7.07;;;4.93;;
15944;SDS011;30172;48.832;8.732;2022-08-30T00:50:58;5.07;;;3.95;;
15944;SDS011;30172;48.832;8.732;2022-08-30T00:53:26;7.25;;;4.82;;
15944;SDS011;30172;48.832;8.732;2022-08-30T00:55:53;8.07;;;4.93;;
15944;SDS011;30172;48.832;8.732;2022-08-30T00:58:21;7.22;;;5.63;;
15944;SDS011;30172;48.832;8.732;2022-08-30T01:00:50;6.40;;;4.45;;
15944;SDS011;30172;48.832;8.732;2022-08-30T01:03:18;5.43;;;4.72;;
15944;SDS011;30172;48.832;8.732;2022-08-30T01:05:43;6.93;;;4.70;;
15944;SDS011;30172;48.832;8.732;2022-08-30T01:08:10;5.90;;;4.72;;
15944;SDS011;30172;48.832;8.732;2022-08-30T01:10:35;5.70;;;4.63;;
15944;SDS011;30172;48.832;8.732;2022-08-30T01:13:01;10.05;;;5.18;;
15944;SDS011;30172;48.832;8.732;2022-08-30T01:15:27;7.72;;;5.25;;
15944;SDS011;30172;48.832;8.732;2022-08-30T01:17:52;5.63;;;4.50;;
15944;SDS011;30172;48.832;8.732;2022-08-30T01:20:21;6.22;;;5.05;;
15944;SDS011;30172;48.832;8.732;2022-08-30T01:25:15;7.47;;;4.78;;
15944;SDS011;30172;48.832;8.732;2022-08-30T01:27:43;6.85;;;5.70;;
15944;SDS011;30172;48.832;8.732;2022-08-30T01:30:12;8.32;;;4.95;;
15944;SDS011;30172;48.832;8.732;2022-08-30T01:32:38;6.13;;;5.25;;
15944;SDS011;30172;48.832;8.732;2022-08-30T01:35:05;6.30;;;5.00;;
15944;SDS011;30172;48.832;8.732;2022-08-30T01:37:34;7.43;;;4.72;;
15944;SDS011;30172;48.832;8.732;2022-08-30T01:40:00;7.85;;;5.13;;
15944;SDS011;30172;48.832;8.732;2022-08-30T01:42:26;7.82;;;4.75;;
15944;SDS011;30172;48.832;8.732;2022-08-30T01:44:52;5.70;;;5.10;;
15944;SDS011;30172;48.832;8.732;2022-08-30T01:47:17;6.60;;;5.15;;
15944;SDS011;30172;48.832;8.732;2022-08-30T01:49:44;7.22;;;4.90;;
15944;SDS011;30172;48.832;8.732;2022-08-30T01:52:10;8.73;;;5.30;;
15944;SDS011;30172;48.832;8.732;2022-08-30T01:54:38;6.35;;;4.90;;
15944;SDS011;30172;48.832;8.732;2022-08-30T01:57:09;6.57;;;5.07;;
15944;SDS011;30172;48.832;8.732;2022-08-30T01:59:36;6.35;;;4.93;;
15944;SDS011;30172;48.832;8.732;2022-08-30T02:02:03;5.82;;;5.15;;
15944;SDS011;30172;48.832;8.732;2022-08-30T02:04:29;9.77;;;5.55;;
15944;SDS011;30172;48.832;8.732;2022-08-30T02:06:54;6.68;;;4.95;;
15944;SDS011;30172;48.832;8.732;2022-08-30T02:09:20;5.93;;;5.43;;
15944;SDS011;30172;48.832;8.732;2022-08-30T02:11:45;8.68;;;5.35;;
15944;SDS011;30172;48.832;8.732;2022-08-30T02:14:12;5.43;;;4.90;;
15944;SDS011;30172;48.832;8.732;2022-08-30T02:16:37;8.52;;;5.07;;
15944;SDS011;30172;48.832;8.732;2022-08-30T02:19:03;6.38;;;4.88;;
15944;SDS011;30172;48.832;8.732;2022-08-30T02:21:29;7.82;;;5.13;;
15944;SDS011;30172;48.832;8.732;2022-08-30T02:23:54;7.50;;;5.18;;
15944;SDS011;30172;48.832;8.732;2022-08-30T02:26:20;6.18;;;5.38;;
15944;SDS011;30172;48.832;8.732;2022-08-30T02:28:46;8.48;;;6.03;;
15944;SDS011;30172;48.832;8.732;2022-08-30T02:31:12;7.32;;;6.00;;
15944;SDS011;30172;48.832;8.732;2022-08-30T02:33:37;8.98;;;5.38;;
15944;SDS011;30172;48.832;8.732;2022-08-30T02:36:04;7.38;;;5.55;;
15944;SDS011;30172;48.832;8.732;2022-08-30T02:38:30;9.57;;;5.72;;
15944;SDS011;30172;48.832;8.732;2022-08-30T02:40:55;7.80;;;5.85;;
15944;SDS011;30172;48.832;8.732;2022-08-30T02:43:20;8.05;;;5.43;;
15944;SDS011;30172;48.832;8.732;2022-08-30T02:45:46;8.02;;;5.40;;
15944;SDS011;30172;48.832;8.732;2022-08-30T02:48:11;7.22;;;5.53;;
15944;SDS011;30172;48.832;8.732;2022-08-30T02:50:40;6.10;;;5.50;;
15944;SDS011;30172;48.832;8.732;2022-08-30T02:53:06;9.68;;;5.80;;
15944;SDS011;30172;48.832;8.732;2022-08-30T02:55:31;6.75;;;5.40;;
15944;SDS011;30172;48.832;8.732;2022-08-30T02:57:57;10.13;;;5.88;;
15944;SDS011;30172;48.832;8.732;2022-08-30T03:00:22;8.70;;;6.18;;
15944;SDS011;30172;48.832;8.732;2022-08-30T03:02:47;7.85;;;5.80;;
15944;SDS011;30172;48.832;8.732;2022-08-30T03:05:14;7.22;;;5.35;;
15944;SDS011;30172;48.832;8.732;2022-08-30T03:07:40;7.38;;;5.32;;
15944;SDS011;30172;48.832;8.732;2022-08-30T03:10:06;8.25;;;5.60;;
15944;SDS011;30172;48.832;8.732;2022-08-30T03:12:31;6.80;;;5.68;;
15944;SDS011;30172;48.832;8.732;2022-08-30T03:14:57;8.10;;;5.63;;
15944;SDS011;30172;48.832;8.732;2022-08-30T03:17:23;8.55;;;5.95;;
15944;SDS011;30172;48.832;8.732;2022-08-30T03:19:48;6.90;;;5.18;;
15944;SDS011;30172;48.832;8.732;2022-08-30T03:22:13;7.03;;;5.82;;
15944;SDS011;30172;48.832;8.732;2022-08-30T03:24:39;7.75;;;5.65;;
15944;SDS011;30172;48.832;8.732;2022-08-30T03:27:04;10.90;;;6.05;;
15944;SDS011;30172;48.832;8.732;2022-08-30T03:29:30;8.35;;;6.20;;
15944;SDS011;30172;48.832;8.732;2022-08-30T03:31:55;6.70;;;5.55;;
15944;SDS011;30172;48.832;8.732;2022-08-30T03:34:22;6.18;;;5.55;;
15944;SDS011;30172;48.832;8.732;2022-08-30T03:36:48;8.63;;;6.35;;
15944;SDS011;30172;48.832;8.732;2022-08-30T03:39:14;9.10;;;6.20;;
15944;SDS011;30172;48.832;8.732;2022-08-30T03:41:39;6.53;;;5.40;;
15944;SDS011;30172;48.832;8.732;2022-08-30T03:44:04;7.18;;;5.80;;
15944;SDS011;30172;48.832;8.732;2022-08-30T03:46:30;12.45;;;6.57;;
15944;SDS011;30172;48.832;8.732;2022-08-30T03:48:55;9.77;;;6.47;;
15944;SDS011;30172;48.832;8.732;2022-08-30T03:51:21;7.85;;;6.28;;
15944;SDS011;30172;48.832;8.732;2022-08-30T03:53:47;7.97;;;6.32;;
15944;SDS011;30172;48.832;8.732;2022-08-30T03:56:12;6.63;;;5.50;;
15944;SDS011;30172;48.832;8.732;2022-08-30T03:58:38;8.25;;;5.75;;
15944;SDS011;30172;48.832;8.732;2022-08-30T04:01:04;7.68;;;5.53;;
15944;SDS011;30172;48.832;8.732;2022-08-30T04:03:30;9.13;;;6.07;;
15944;SDS011;30172;48.832;8.732;2022-08-30T04:05:55;8.52;;;5.97;;
15944;SDS011;30172;48.832;8.732;2022-08-30T04:08:21;7.80;;;6.43;;
15944;SDS011;30172;48.832;8.732;2022-08-30T04:10:47;7.35;;;5.90;;
15944;SDS011;30172;48.832;8.732;2022-08-30T04:13:16;8.27;;;5.57;;
15944;SDS011;30172;48.832;8.732;2022-08-30T04:15:42;9.95;;;6.28;;
15944;SDS011;30172;48.832;8.732;2022-08-30T04:18:07;11.88;;;5.60;;
15944;SDS011;30172;48.832;8.732;2022-08-30T04:20:32;10.73;;;6.53;;
15944;SDS011;30172;48.832;8.732;2022-08-30T04:22:58;6.47;;;5.85;;
15944;SDS011;30172;48.832;8.732;2022-08-30T04:25:23;8.77;;;6.03;;
15944;SDS011;30172;48.832;8.732;2022-08-30T04:27:49;7.55;;;5.90;;
15944;SDS011;30172;48.832;8.732;2022-08-30T04:30:15;6.53;;;5.47;;
15944;SDS011;30172;48.832;8.732;2022-08-30T04:32:41;6.68;;;5.78;;
15944;SDS011;30172;48.832;8.732;2022-08-30T04:35:07;10.07;;;6.88;;
15944;SDS011;30172;48.832;8.732;2022-08-30T04:37:33;8.32;;;6.35;;
15944;SDS011;30172;48.832;8.732;2022-08-30T04:39:59;7.85;;;6.15;;
15944;SDS011;30172;48.832;8.732;2022-08-30T04:42:25;8.18;;;6.10;;
15944;SDS011;30172;48.832;8.732;2022-08-30T04:44:55;6.97;;;5.78;;
15944;SDS011;30172;48.832;8.732;2022-08-30T04:47:21;6.88;;;6.25;;
15944;SDS011;30172;48.832;8.732;2022-08-30T04:49:46;8.43;;;6.10;;
15944;SDS011;30172;48.832;8.732;2022-08-30T04:52:11;6.95;;;6.20;;
15944;SDS011;30172;48.832;8.732;2022-08-30T04:54:36;9.23;;;7.03;;
15944;SDS011;30172;48.832;8.732;2022-08-30T04:57:02;8.52;;;6.30;;
15944;SDS011;30172;48.832;8.732;2022-08-30T04:59:29;8.88;;;6.28;;
15944;SDS011;30172;48.832;8.732;2022-08-30T05:01:55;8.65;;;6.40;;
15944;SDS011;30172;48.832;8.732;2022-08-30T05:04:20;9.55;;;6.18;;
15944;SDS011;30172;48.832;8.732;2022-08-30T05:06:45;10.65;;;6.97;;
15944;SDS011;30172;48.832;8.732;2022-08-30T05:09:11;8.70;;;6.78;;
15944;SDS011;30172;48.832;8.732;2022-08-30T05:11:36;8.18;;;6.20;;
15944;SDS011;30172;48.832;8.732;2022-08-30T05:14:02;6.72;;;5.95;;
15944;SDS011;30172;48.832;8.732;2022-08-30T05:16:28;8.73;;;5.70;;
15944;SDS011;30172;48.832;8.732;2022-08-30T05:18:53;9.00;;;6.15;;
15944;SDS011;30172;48.832;8.732;2022-08-30T05:21:20;7.45;;;6.60;;
15944;SDS011;30172;48.832;8.732;2022-08-30T05:23:47;7.82;;;6.65;;
15944;SDS011;30172;48.832;8.732;2022-08-30T05:26:20;11.32;;;6.88;;
15944;SDS011;30172;48.832;8.732;2022-08-30T05:28:47;8.80;;;6.85;;
15944;SDS011;30172;48.832;8.732;2022-08-30T05:33:46;7.65;;;6.70;;
15944;SDS011;30172;48.832;8.732;2022-08-30T05:36:12;7.25;;;6.55;;
15944;SDS011;30172;48.832;8.732;2022-08-30T05:38:38;10.35;;;6.50;;
15944;SDS011;30172;48.832;8.732;2022-08-30T05:41:04;10.38;;;7.53;;
15944;SDS011;30172;48.832;8.732;2022-08-30T05:43:30;9.23;;;6.90;;
15944;SDS011;30172;48.832;8.732;2022-08-30T05:46:02;9.77;;;6.65;;
15944;SDS011;30172;48.832;8.732;2022-08-30T05:48:32;9.50;;;7.25;;
15944;SDS011;30172;48.832;8.732;2022-08-30T05:51:06;7.65;;;6.68;;
15944;SDS011;30172;48.832;8.732;2022-08-30T05:53:35;7.35;;;6.60;;
15944;SDS011;30172;48.832;8.732;2022-08-30T05:56:02;8.82;;;6.80;;
15944;SDS011;30172;48.832;8.732;2022-08-30T05:58:29;8.20;;;6.85;;
15944;SDS011;30172;48.832;8.732;2022-08-30T06:00:54;8.57;;;6.13;;
15944;SDS011;30172;48.832;8.732;2022-08-30T06:03:19;10.27;;;7.15;;
15944;SDS011;30172;48.832;8.732;2022-08-30T06:05:45;8.20;;;6.93;;
15944;SDS011;30172;48.832;8.732;2022-08-30T06:08:10;8.40;;;6.57;;
15944;SDS011;30172;48.832;8.732;2022-08-30T06:10:35;9.18;;;7.13;;
15944;SDS011;30172;48.832;8.732;2022-08-30T06:13:01;7.53;;;6.22;;
15944;SDS011;30172;48.832;8.732;2022-08-30T06:15:26;10.55;;;6.80;;
15944;SDS011;30172;48.832;8.732;2022-08-30T06:17:51;11.25;;;6.82;;
15944;SDS011;30172;48.832;8.732;2022-08-30T06:20:16;12.77;;;7.85;;
15944;SDS011;30172;48.832;8.732;2022-08-30T06:22:44;10.43;;;7.05;;
15944;SDS011;30172;48.832;8.732;2022-08-30T06:25:10;8.25;;;5.97;;
15944;SDS011;30172;48.832;8.732;2022-08-30T06:27:35;7.60;;;6.90;;
15944;SDS011;30172;48.832;8.732;2022-08-30T06:30:01;8.48;;;6.28;;
15944;SDS011;30172;48.832;8.732;2022-08-30T06:32:27;9.50;;;6.55;;
15944;SDS011;30172;48.832;8.732;2022-08-30T06:34:52;7.55;;;6.75;;
15944;SDS011;30172;48.832;8.732;2022-08-30T06:37:17;8.13;;;6.38;;
15944;SDS011;30172;48.832;8.732;2022-08-30T06:39:43;9.70;;;6.55;;
15944;SDS011;30172;48.832;8.732;2022-08-30T06:42:08;7.50;;;6.68;;
15944;SDS011;30172;48.832;8.732;2022-08-30T06:44:33;7.93;;;5.97;;
15944;SDS011;30172;48.832;8.732;2022-08-30T06:46:59;7.35;;;6.55;;
15944;SDS011;30172;48.832;8.732;2022-08-30T06:49:24;8.23;;;7.20;;
15944;SDS011;30172;48.832;8.732;2022-08-30T06:51:49;8.48;;;6.43;;
15944;SDS011;30172;48.832;8.732;2022-08-30T06:54:15;8.57;;;6.78;;
15944;SDS011;30172;48.832;8.732;2022-08-30T06:56:40;8.50;;;6.10;;
15944;SDS011;30172;48.832;8.732;2022-08-30T06:59:06;6.80;;;6.10;;
15944;SDS011;30172;48.832;8.732;2022-08-30T07:01:31;7.22;;;6.40;;
15944;SDS011;30172;48.832;8.732;2022-08-30T07:03:56;6.43;;;5.82;;
15944;SDS011;30172;48.832;8.732;2022-08-30T07:06:23;8.07;;;6.75;;
15944;SDS011;30172;48.832;8.732;2022-08-30T07:08:49;7.10;;;5.97;;
15944;SDS011;30172;48.832;8.732;2022-08-30T07:11:23;7.22;;;6.53;;
15944;SDS011;30172;48.832;8.732;2022-08-30T07:13:50;7.97;;;6.90;;
15944;SDS011;30172;48.832;8.732;2022-08-30T07:16:15;8.82;;;6.47;;
15944;SDS011;30172;48.832;8.732;2022-08-30T07:18:40;8.13;;;6.38;;
15944;SDS011;30172;48.832;8.732;2022-08-30T07:21:15;9.68;;;6.60;;
15944;SDS011;30172;48.832;8.732;2022-08-30T07:23:43;8.25;;;6.63;;
15944;SDS011;30172;48.832;8.732;2022-08-30T07:26:09;6.55;;;5.90;;
15944;SDS011;30172;48.832;8.732;2022-08-30T07:28:37;10.52;;;7.10;;
15944;SDS011;30172;48.832;8.732;2022-08-30T07:31:03;6.53;;;5.88;;
15944;SDS011;30172;48.832;8.732;2022-08-30T07:33:29;8.52;;;6.47;;
15944;SDS011;30172;48.832;8.732;2022-08-30T07:35:55;7.88;;;6.43;;
15944;SDS011;30172;48.832;8.732;2022-08-30T07:38:20;7.30;;;6.00;;
15944;SDS011;30172;48.832;8.732;2022-08-30T07:40:45;10.18;;;6.97;;
15944;SDS011;30172;48.832;8.732;2022-08-30T07:43:11;9.05;;;6.38;;
15944;SDS011;30172;48.832;8.732;2022-08-30T07:45:37;6.60;;;6.00;;
15944;SDS011;30172;48.832;8.732;2022-08-30T07:48:02;7.25;;;6.55;;
15944;SDS011;30172;48.832;8.732;2022-08-30T07:50:28;7.28;;;6.55;;
15944;SDS011;30172;48.832;8.732;2022-08-30T07:52:54;8.18;;;7.38;;
15944;SDS011;30172;48.832;8.732;2022-08-30T07:55:19;8.02;;;6.95;;
15944;SDS011;30172;48.832;8.732;2022-08-30T07:57:44;8.00;;;7.22;;
15944;SDS011;30172;48.832;8.732;2022-08-30T08:00:10;7.60;;;6.90;;
15944;SDS011;30172;48.832;8.732;2022-08-30T08:02:35;8.80;;;7.03;;
15944;SDS011;30172;48.832;8.732;2022-08-30T08:05:01;7.70;;;6.90;;
15944;SDS011;30172;48.832;8.732;2022-08-30T08:07:29;6.90;;;6.18;;
15944;SDS011;30172;48.832;8.732;2022-08-30T08:09:55;8.23;;;7.35;;
15944;SDS011;30172;48.832;8.732;2022-08-30T08:12:20;6.97;;;6.05;;
15944;SDS011;30172;48.832;8.732;2022-08-30T08:14:45;8.13;;;6.93;;
15944;SDS011;30172;48.832;8.732;2022-08-30T08:17:11;9.38;;;6.70;;
15944;SDS011;30172;48.832;8.732;2022-08-30T08:19:36;9.45;;;6.35;;
15944;SDS011;30172;48.832;8.732;2022-08-30T08:22:01;7.43;;;6.72;;
15944;SDS011;30172;48.832;8.732;2022-08-30T08:24:27;7.78;;;6.53;;
15944;SDS011;30172;48.832;8.732;2022-08-30T08:26:53;7.47;;;6.65;;
15944;SDS011;30172;48.832;8.732;2022-08-30T08:29:19;8.60;;;6.90;;
15944;SDS011;30172;48.832;8.732;2022-08-30T08:31:44;6.30;;;5.70;;
15944;SDS011;30172;48.832;8.732;2022-08-30T08:34:10;7.75;;;6.82;;
15944;SDS011;30172;48.832;8.732;2022-08-30T08:36:36;6.63;;;5.72;;
15944;SDS011;30172;48.832;8.732;2022-08-30T08:39:02;8.35;;;6.25;;
15944;SDS011;30172;48.832;8.732;2022-08-30T08:42:12;9.20;;;7.18;;
15944;SDS011;30172;48.832;8.732;2022-08-30T08:47:25;8.63;;;5.95;;
15944;SDS011;30172;48.832;8.732;2022-08-30T08:49:58;7.13;;;6.05;;
15944;SDS011;30172;48.832;8.732;2022-08-30T08:55:26;7.10;;;5.93;;
15944;SDS011;30172;48.832;8.732;2022-08-30T08:57:53;9.05;;;6.05;;
15944;SDS011;30172;48.832;8.732;2022-08-30T09:00:20;10.23;;;6.63;;
15944;SDS011;30172;48.832;8.732;2022-08-30T09:02:46;8.60;;;6.40;;
15944;SDS011;30172;48.832;8.732;2022-08-30T09:05:17;8.00;;;6.53;;
15944;SDS011;30172;48.832;8.732;2022-08-30T09:07:45;6.65;;;5.80;;
15944;SDS011;30172;48.832;8.732;2022-08-30T09:10:13;9.90;;;5.88;;
15944;SDS011;30172;48.832;8.732;2022-08-30T09:12:38;6.45;;;5.63;;
15944;SDS011;30172;48.832;8.732;2022-08-30T09:15:17;9.00;;;6.38;;
15944;SDS011;30172;48.832;8.732;2022-08-30T09:20:39;6.85;;;6.13;;
15944;SDS011;30172;48.832;8.732;2022-08-30T09:25:52;6.20;;;5.60;;
15944;SDS011;30172;48.832;8.732;2022-08-30T09:28:20;7.03;;;5.20;;
15944;SDS011;30172;48.832;8.732;2022-08-30T09:31:15;7.85;;;5.90;;
15944;SDS011;30172;48.832;8.732;2022-08-30T09:36:32;6.07;;;5.47;;
15944;SDS011;30172;48.832;8.732;2022-08-30T09:39:06;7.05;;;5.22;;
15944;SDS011;30172;48.832;8.732;2022-08-30T09:41:41;7.45;;;5.70;;
15944;SDS011;30172;48.832;8.732;2022-08-30T09:44:09;7.13;;;5.10;;
15944;SDS011;30172;48.832;8.732;2022-08-30T09:46:42;7.55;;;5.00;;
15944;SDS011;30172;48.832;8.732;2022-08-30T10:00:22;6.43;;;5.82;;
15944;SDS011;30172;48.832;8.732;2022-08-30T10:02:53;6.13;;;5.45;;
15944;SDS011;30172;48.832;8.732;2022-08-30T10:05:40;7.65;;;4.93;;
15944;SDS011;30172;48.832;8.732;2022-08-30T10:11:00;8.23;;;5.57;;
15944;SDS011;30172;48.832;8.732;2022-08-30T10:13:41;6.57;;;5.93;;
15944;SDS011;30172;48.832;8.732;2022-08-30T10:16:18;6.30;;;5.75;;
15944;SDS011;30172;48.832;8.732;2022-08-30T10:19:12;6.40;;;5.80;;
15944;SDS011;30172;48.832;8.732;2022-08-30T10:22:08;6.80;;;6.10;;
15944;SDS011;30172;48.832;8.732;2022-08-30T10:24:47;6.53;;;5.57;;
15944;SDS011;30172;48.832;8.732;2022-08-30T10:27:37;7.78;;;5.53;;
15944;SDS011;30172;48.832;8.732;2022-08-30T10:30:05;7.78;;;5.65;;
15944;SDS011;30172;48.832;8.732;2022-08-30T10:32:43;7.45;;;6.07;;
15944;SDS011;30172;48.832;8.732;2022-08-30T10:35:39;8.95;;;7.00;;
15944;SDS011;30172;48.832;8.732;2022-08-30T10:38:23;7.03;;;5.75;;
15944;SDS011;30172;48.832;8.732;2022-08-30T10:41:27;7.10;;;6.40;;
15944;SDS011;30172;48.832;8.732;2022-08-30T10:43:52;6.80;;;6.15;;
15944;SDS011;30172;48.832;8.732;2022-08-30T10:46:31;8.15;;;6.13;;
15944;SDS011;30172;48.832;8.732;2022-08-30T10:49:01;6.90;;;6.20;;
15944;SDS011;30172;48.832;8.732;2022-08-30T10:51:33;6.75;;;6.07;;
15944;SDS011;30172;48.832;8.732;2022-08-30T10:56:34;7.38;;;5.80;;
15944;SDS011;30172;48.832;8.732;2022-08-30T10:59:03;6.43;;;5.82;;
15944;SDS011;30172;48.832;8.732;2022-08-30T11:01:35;7.95;;;6.30;;
15944;SDS011;30172;48.832;8.732;2022-08-30T11:04:17;8.55;;;6.03;;
15944;SDS011;30172;48.832;8.732;2022-08-30T11:07:00;7.63;;;5.88;;
15944;SDS011;30172;48.832;8.732;2022-08-30T11:13:19;7.13;;;5.85;;
15944;SDS011;30172;48.832;8.732;2022-08-30T11:15:27;8.90;;;6.90;;
15944;SDS011;30172;48.832;8.732;2022-08-30T11:20:42;5.75;;;5.25;;
15944;SDS011;30172;48.832;8.732;2022-08-30T11:23:13;7.05;;;5.72;;
15944;SDS011;30172;48.832;8.732;2022-08-30T11:25:49;5.70;;;5.15;;
15944;SDS011;30172;48.832;8.732;2022-08-30T11:31:07;6.35;;;5.55;;
15944;SDS011;30172;48.832;8.732;2022-08-30T11:33:45;9.10;;;5.90;;
15944;SDS011;30172;48.832;8.732;2022-08-30T11:38:58;6.63;;;5.50;;
15944;SDS011;30172;48.832;8.732;2022-08-30T11:41:40;5.72;;;5.10;;
15944;SDS011;30172;48.832;8.732;2022-08-30T11:46:49;6.32;;;5.72;;
15944;SDS011;30172;48.832;8.732;2022-08-30T11:59:30;6.72;;;5.68;;
15944;SDS011;30172;48.832;8.732;2022-08-30T12:02:02;6.78;;;5.28;;
15944;SDS011;30172;48.832;8.732;2022-08-30T12:04:44;5.55;;;5.05;;
15944;SDS011;30172;48.832;8.732;2022-08-30T12:07:11;5.57;;;5.00;;
15944;SDS011;30172;48.832;8.732;2022-08-30T12:10:22;6.47;;;5.15;;
15944;SDS011;30172;48.832;8.732;2022-08-30T12:13:05;6.75;;;5.20;;
15944;SDS011;30172;48.832;8.732;2022-08-30T12:15:54;5.82;;;5.22;;
15944;SDS011;30172;48.832;8.732;2022-08-30T12:18:23;7.10;;;5.82;;
15944;SDS011;30172;48.832;8.732;2022-08-30T12:21:02;5.38;;;4.88;;
15944;SDS011;30172;48.832;8.732;2022-08-30T12:23:45;7.55;;;5.53;;
15944;SDS011;30172;48.832;8.732;2022-08-30T12:28:50;5.45;;;4.95;;
15944;SDS011;30172;48.832;8.732;2022-08-30T12:31:38;5.65;;;5.15;;
15944;SDS011;30172;48.832;8.732;2022-08-30T12:34:05;6.35;;;4.75;;
15944;SDS011;30172;48.832;8.732;2022-08-30T12:39:59;6.95;;;5.22;;
15944;SDS011;30172;48.832;8.732;2022-08-30T12:42:16;5.97;;;5.30;;
15944;SDS011;30172;48.832;8.732;2022-08-30T12:44:44;6.28;;;5.20;;
15944;SDS011;30172;48.832;8.732;2022-08-30T12:47:11;6.93;;;5.13;;
15944;SDS011;30172;48.832;8.732;2022-08-30T12:49:38;7.15;;;5.57;;
15944;SDS011;30172;48.832;8.732;2022-08-30T12:52:19;5.63;;;5.13;;
15944;SDS011;30172;48.832;8.732;2022-08-30T12:54:51;6.15;;;5.35;;
15944;SDS011;30172;48.832;8.732;2022-08-30T12:57:34;6.72;;;5.32;;
15944;SDS011;30172;48.832;8.732;2022-08-30T13:00:22;6.25;;;5.30;;
15944;SDS011;30172;48.832;8.732;2022-08-30T13:02:55;5.88;;;5.30;;
15944;SDS011;30172;48.832;8.732;2022-08-30T13:05:27;5.68;;;5.18;;
15944;SDS011;30172;48.832;8.732;2022-08-30T13:07:52;6.80;;;5.78;;
15944;SDS011;30172;48.832;8.732;2022-08-30T13:10:32;6.07;;;4.90;;
15944;SDS011;30172;48.832;8.732;2022-08-30T13:13:02;5.82;;;4.93;;
15944;SDS011;30172;48.832;8.732;2022-08-30T13:15:33;6.07;;;5.45;;
15944;SDS011;30172;48.832;8.732;2022-08-30T13:18:26;7.32;;;5.85;;
15944;SDS011;30172;48.832;8.732;2022-08-30T13:21:10;7.75;;;5.38;;
15944;SDS011;30172;48.832;8.732;2022-08-30T13:23:47;6.53;;;5.57;;
15944;SDS011;30172;48.832;8.732;2022-08-30T13:26:14;5.80;;;5.32;;
15944;SDS011;30172;48.832;8.732;2022-08-30T13:28:44;5.90;;;5.30;;
15944;SDS011;30172;48.832;8.732;2022-08-30T13:31:10;7.78;;;4.40;;
15944;SDS011;30172;48.832;8.732;2022-08-30T13:33:36;7.50;;;5.32;;
15944;SDS011;30172;48.832;8.732;2022-08-30T13:36:01;5.65;;;4.72;;
15944;SDS011;30172;48.832;8.732;2022-08-30T13:38:26;6.75;;;5.32;;
15944;SDS011;30172;48.832;8.732;2022-08-30T13:40:56;6.85;;;5.40;;
15944;SDS011;30172;48.832;8.732;2022-08-30T13:43:29;6.40;;;5.07;;
15944;SDS011;30172;48.832;8.732;2022-08-30T13:45:54;6.65;;;5.28;;
15944;SDS011;30172;48.832;8.732;2022-08-30T13:48:21;5.70;;;5.18;;
15944;SDS011;30172;48.832;8.732;2022-08-30T13:50:46;5.28;;;4.78;;
15944;SDS011;30172;48.832;8.732;2022-08-30T13:53:11;5.85;;;5.18;;
15944;SDS011;30172;48.832;8.732;2022-08-30T13:55:37;5.65;;;5.13;;
15944;SDS011;30172;48.832;8.732;2022-08-30T13:58:03;6.00;;;5.40;;
15944;SDS011;30172;48.832;8.732;2022-08-30T14:00:29;6.15;;;5.40;;
15944;SDS011;30172;48.832;8.732;2022-08-30T14:02:54;5.65;;;5.05;;
15944;SDS011;30172;48.832;8.732;2022-08-30T14:05:20;6.63;;;5.47;;
15944;SDS011;30172;48.832;8.732;2022-08-30T14:07:54;6.15;;;5.18;;
15944;SDS011;30172;48.832;8.732;2022-08-30T14:10:19;6.72;;;5.20;;
15944;SDS011;30172;48.832;8.732;2022-08-30T14:12:47;6.97;;;5.22;;
15944;SDS011;30172;48.832;8.732;2022-08-30T14:15:13;5.35;;;4.60;;
15944;SDS011;30172;48.832;8.732;2022-08-30T14:17:38;5.88;;;5.10;;
15944;SDS011;30172;48.832;8.732;2022-08-30T14:20:03;5.82;;;5.22;;
15944;SDS011;30172;48.832;8.732;2022-08-30T14:22:29;8.05;;;5.00;;
15944;SDS011;30172;48.832;8.732;2022-08-30T14:24:54;6.07;;;4.70;;
15944;SDS011;30172;48.832;8.732;2022-08-30T14:27:19;5.50;;;5.00;;
15944;SDS011;30172;48.832;8.732;2022-08-30T14:29:45;5.72;;;5.22;;
15944;SDS011;30172;48.832;8.732;2022-08-30T14:32:10;7.25;;;5.07;;
15944;SDS011;30172;48.832;8.732;2022-08-30T14:34:36;5.93;;;4.88;;
15944;SDS011;30172;48.832;8.732;2022-08-30T14:37:01;6.28;;;5.10;;
15944;SDS011;30172;48.832;8.732;2022-08-30T14:39:29;5.70;;;5.10;;
15944;SDS011;30172;48.832;8.732;2022-08-30T14:41:55;5.35;;;4.82;;
15944;SDS011;30172;48.832;8.732;2022-08-30T14:44:20;5.88;;;5.38;;
15944;SDS011;30172;48.832;8.732;2022-08-30T14:46:47;6.30;;;5.30;;
15944;SDS011;30172;48.832;8.732;2022-08-30T14:49:13;6.00;;;5.40;;
15944;SDS011;30172;48.832;8.732;2022-08-30T14:51:39;5.60;;;5.03;;
15944;SDS011;30172;48.832;8.732;2022-08-30T14:54:04;5.78;;;5.30;;
15944;SDS011;30172;48.832;8.732;2022-08-30T14:56:29;8.88;;;5.97;;
15944;SDS011;30172;48.832;8.732;2022-08-30T14:58:55;6.57;;;4.63;;
15944;SDS011;30172;48.832;8.732;2022-08-30T15:01:27;7.20;;;5.20;;
15944;SDS011;30172;48.832;8.732;2022-08-30T15:03:54;6.80;;;5.15;;
15944;SDS011;30172;48.832;8.732;2022-08-30T15:06:20;6.68;;;5.30;;
15944;SDS011;30172;48.832;8.732;2022-08-30T15:08:45;9.30;;;5.45;;
15944;SDS011;30172;48.832;8.732;2022-08-30T15:11:12;6.75;;;5.13;;
15944;SDS011;30172;48.832;8.732;2022-08-30T15:13:38;6.43;;;4.72;;
15944;SDS011;30172;48.832;8.732;2022-08-30T15:16:12;6.25;;;5.60;;
15944;SDS011;30172;48.832;8.732;2022-08-30T15:18:40;5.72;;;4.97;;
15944;SDS011;30172;48.832;8.732;2022-08-30T15:21:05;5.95;;;5.30;;
15944;SDS011;30172;48.832;8.732;2022-08-30T15:23:31;5.55;;;5.03;;
15944;SDS011;30172;48.832;8.732;2022-08-30T15:25:56;4.93;;;4.53;;
15944;SDS011;30172;48.832;8.732;2022-08-30T15:28:21;6.82;;;5.00;;
15944;SDS011;30172;48.832;8.732;2022-08-30T15:30:47;5.93;;;5.32;;
15944;SDS011;30172;48.832;8.732;2022-08-30T15:33:12;5.57;;;4.50;;
15944;SDS011;30172;48.832;8.732;2022-08-30T15:35:37;5.32;;;4.82;;
15944;SDS011;30172;48.832;8.732;2022-08-30T15:38:03;6.75;;;4.90;;
15944;SDS011;30172;48.832;8.732;2022-08-30T15:40:30;7.18;;;4.47;;
15944;SDS011;30172;48.832;8.732;2022-08-30T15:42:56;5.20;;;4.65;;
15944;SDS011;30172;48.832;8.732;2022-08-30T15:45:21;7.35;;;5.03;;
15944;SDS011;30172;48.832;8.732;2022-08-30T15:47:47;5.05;;;4.68;;
15944;SDS011;30172;48.832;8.732;2022-08-30T15:54:14;8.48;;;4.85;;
15944;SDS011;30172;48.832;8.732;2022-08-30T15:57:04;5.75;;;5.18;;
15944;SDS011;30172;48.832;8.732;2022-08-30T16:02:31;5.30;;;4.80;;
15944;SDS011;30172;48.832;8.732;2022-08-30T16:07:50;6.35;;;5.05;;
15944;SDS011;30172;48.832;8.732;2022-08-30T16:10:57;7.88;;;5.00;;
15944;SDS011;30172;48.832;8.732;2022-08-30T16:13:49;8.43;;;4.90;;